sensor_id;sensor_type;location;lat;lon;timestamp;pressure;altitude;pressure_sealevel;temperature;humidity
61086;BME280;46967;48.876;2.136;2023-01-29T00:02:12;102917.19;;;1.18;74.28
61086;BME280;46967;48.876;2.136;2023-01-29T00:04:38;102919.53;;;1.14;74.46
61086;BME280;46967;48.876;2.136;2023-01-29T00:07:03;102916.19;;;1.15;74.38
61086;BME280;46967;48.876;2.136;2023-01-29T00:09:28;102915.97;;;1.10;74.26
61086;BME280;46967;48.876;2.136;2023-01-29T00:11:55;102917.47;;;1.05;74.21
61086;BME280;46967;48.876;2.136;2023-01-29T00:14:21;102911.13;;;0.97;74.24
61086;BME280;46967;48.876;2.136;2023-01-29T00:16:46;102905.56;;;0.86;74.73
61086;BME280;46967;48.876;2.136;2023-01-29T00:19:11;102916.38;;;0.80;75.47
61086;BME280;46967;48.876;2.136;2023-01-29T00:21:37;102918.94;;;0.80;75.27
61086;BME280;46967;48.876;2.136;2023-01-29T00:24:02;102915.47;;;0.78;75.29
61086;BME280;46967;48.876;2.136;2023-01-29T00:26:28;102921.44;;;0.79;75.94
61086;BME280;46967;48.876;2.136;2023-01-29T00:28:54;102914.56;;;0.78;76.53
61086;BME280;46967;48.876;2.136;2023-01-29T00:31:23;102917.03;;;0.76;76.96
61086;BME280;46967;48.876;2.136;2023-01-29T00:33:49;102917.88;;;0.75;76.76
61086;BME280;46967;48.876;2.136;2023-01-29T00:36:16;102912.56;;;0.70;76.74
61086;BME280;46967;48.876;2.136;2023-01-29T00:38:42;102907.31;;;0.67;76.14
61086;BME280;46967;48.876;2.136;2023-01-29T00:41:11;102912.41;;;0.67;76.24
61086;BME280;46967;48.876;2.136;2023-01-29T00:43:56;102917.47;;;0.66;76.09
61086;BME280;46967;48.876;2.136;2023-01-29T00:46:40;102913.84;;;0.61;76.57
61086;BME280;46967;48.876;2.136;2023-01-29T00:49:06;102906.81;;;0.57;77.07
61086;BME280;46967;48.876;2.136;2023-01-29T00:51:31;102909.22;;;0.53;77.60
61086;BME280;46967;48.876;2.136;2023-01-29T00:53:57;102909.78;;;0.46;77.86
61086;BME280;46967;48.876;2.136;2023-01-29T00:56:28;102913.72;;;0.40;77.74
61086;BME280;46967;48.876;2.136;2023-01-29T00:58:54;102904.91;;;0.33;77.58
61086;BME280;46967;48.876;2.136;2023-01-29T01:01:20;102904.75;;;0.30;77.79
61086;BME280;46967;48.876;2.136;2023-01-29T01:04:06;102903.75;;;0.26;78.06
61086;BME280;46967;48.876;2.136;2023-01-29T01:06:32;102901.25;;;0.28;78.06
61086;BME280;46967;48.876;2.136;2023-01-29T01:08:58;102905.59;;;0.29;78.20
61086;BME280;46967;48.876;2.136;2023-01-29T01:11:42;102908.94;;;0.28;78.06
61086;BME280;46967;48.876;2.136;2023-01-29T01:14:08;102903.88;;;0.29;77.97
61086;BME280;46967;48.876;2.136;2023-01-29T01:16:33;102902.13;;;0.28;77.98
61086;BME280;46967;48.876;2.136;2023-01-29T01:18:59;102902.13;;;0.28;77.85
61086;BME280;46967;48.876;2.136;2023-01-29T01:21:24;102897.78;;;0.26;78.33
61086;BME280;46967;48.876;2.136;2023-01-29T01:23:49;102902.75;;;0.23;78.34
61086;BME280;46967;48.876;2.136;2023-01-29T01:26:16;102902.44;;;0.16;78.34
61086;BME280;46967;48.876;2.136;2023-01-29T01:28:42;102903.84;;;0.10;78.51
61086;BME280;46967;48.876;2.136;2023-01-29T01:31:12;102896.97;;;0.09;78.09
61086;BME280;46967;48.876;2.136;2023-01-29T01:33:38;102907.97;;;0.08;77.95
61086;BME280;46967;48.876;2.136;2023-01-29T01:36:04;102903.69;;;0.07;78.20
61086;BME280;46967;48.876;2.136;2023-01-29T01:38:33;102902.72;;;0.05;78.40
61086;BME280;46967;48.876;2.136;2023-01-29T01:40:58;102907.84;;;0.05;78.50
61086;BME280;46967;48.876;2.136;2023-01-29T01:43:24;102908.66;;;0.04;78.66
61086;BME280;46967;48.876;2.136;2023-01-29T01:45:49;102904.06;;;-0.04;79.00
61086;BME280;46967;48.876;2.136;2023-01-29T01:48:26;102907.59;;;-0.02;78.81
61086;BME280;46967;48.876;2.136;2023-01-29T01:51:11;102913.56;;;-0.01;78.87
61086;BME280;46967;48.876;2.136;2023-01-29T01:53:45;102913.97;;;-0.10;79.32
61086;BME280;46967;48.876;2.136;2023-01-29T01:56:16;102915.50;;;-0.13;79.28
61086;BME280;46967;48.876;2.136;2023-01-29T01:58:47;102918.94;;;-0.13;79.38
61086;BME280;46967;48.876;2.136;2023-01-29T02:01:15;102915.50;;;-0.13;79.39
61086;BME280;46967;48.876;2.136;2023-01-29T02:03:49;102926.59;;;-0.13;79.62
61086;BME280;46967;48.876;2.136;2023-01-29T02:06:39;102928.88;;;-0.19;79.58
61086;BME280;46967;48.876;2.136;2023-01-29T02:09:30;102933.81;;;-0.22;79.69
61086;BME280;46967;48.876;2.136;2023-01-29T02:12:21;102938.03;;;-0.23;79.46
61086;BME280;46967;48.876;2.136;2023-01-29T02:14:47;102926.09;;;-0.24;79.32
61086;BME280;46967;48.876;2.136;2023-01-29T02:17:15;102925.03;;;-0.27;79.51
61086;BME280;46967;48.876;2.136;2023-01-29T02:37:01;102926.28;;;-0.37;80.08
61086;BME280;46967;48.876;2.136;2023-01-29T02:39:35;102920.94;;;-0.42;80.18
61086;BME280;46967;48.876;2.136;2023-01-29T02:45:01;102917.22;;;-0.48;79.74
61086;BME280;46967;48.876;2.136;2023-01-29T02:47:56;102913.88;;;-0.47;79.56
61086;BME280;46967;48.876;2.136;2023-01-29T02:50:35;102907.88;;;-0.48;79.39
61086;BME280;46967;48.876;2.136;2023-01-29T02:53:16;102908.84;;;-0.46;79.22
61086;BME280;46967;48.876;2.136;2023-01-29T03:00:46;102902.47;;;-0.54;80.08
61086;BME280;46967;48.876;2.136;2023-01-29T03:03:19;102890.53;;;-0.55;80.52
61086;BME280;46967;48.876;2.136;2023-01-29T03:08:22;102874.00;;;-0.63;80.71
61086;BME280;46967;48.876;2.136;2023-01-29T03:10:52;102877.88;;;-0.70;80.47
61086;BME280;46967;48.876;2.136;2023-01-29T03:13:28;102880.50;;;-0.68;80.67
61086;BME280;46967;48.876;2.136;2023-01-29T03:16:08;102884.53;;;-0.74;80.73
61086;BME280;46967;48.876;2.136;2023-01-29T03:18:40;102895.75;;;-0.70;80.61
61086;BME280;46967;48.876;2.136;2023-01-29T03:21:22;102894.09;;;-0.69;80.48
61086;BME280;46967;48.876;2.136;2023-01-29T03:24:09;102885.53;;;-0.70;80.59
61086;BME280;46967;48.876;2.136;2023-01-29T03:26:57;102877.81;;;-0.71;80.86
61086;BME280;46967;48.876;2.136;2023-01-29T03:29:45;102888.75;;;-0.74;80.16
61086;BME280;46967;48.876;2.136;2023-01-29T03:32:31;102887.66;;;-0.79;80.25
61086;BME280;46967;48.876;2.136;2023-01-29T03:35:00;102883.19;;;-0.83;80.14
61086;BME280;46967;48.876;2.136;2023-01-29T03:39:57;102887.66;;;-0.96;80.86
61086;BME280;46967;48.876;2.136;2023-01-29T03:45:38;102887.91;;;-0.91;80.91
61086;BME280;46967;48.876;2.136;2023-01-29T03:48:35;102891.38;;;-0.89;80.56
61086;BME280;46967;48.876;2.136;2023-01-29T03:52:18;102881.78;;;-0.95;80.80
61086;BME280;46967;48.876;2.136;2023-01-29T03:56:58;102884.94;;;-0.99;80.52
61086;BME280;46967;48.876;2.136;2023-01-29T03:59:52;102880.75;;;-0.98;80.03
61086;BME280;46967;48.876;2.136;2023-01-29T04:02:25;102885.84;;;-0.98;80.36
61086;BME280;46967;48.876;2.136;2023-01-29T04:04:57;102880.50;;;-1.03;80.89
61086;BME280;46967;48.876;2.136;2023-01-29T04:07:24;102875.97;;;-1.08;81.30
61086;BME280;46967;48.876;2.136;2023-01-29T04:09:54;102879.47;;;-1.06;81.27
61086;BME280;46967;48.876;2.136;2023-01-29T04:12:25;102875.09;;;-1.09;81.30
61086;BME280;46967;48.876;2.136;2023-01-29T04:14:53;102871.44;;;-1.14;81.32
61086;BME280;46967;48.876;2.136;2023-01-29T04:17:23;102867.28;;;-1.12;80.95
61086;BME280;46967;48.876;2.136;2023-01-29T04:19:52;102875.09;;;-1.09;80.60
61086;BME280;46967;48.876;2.136;2023-01-29T04:22:22;102870.47;;;-1.16;80.52
61086;BME280;46967;48.876;2.136;2023-01-29T04:24:48;102876.47;;;-1.16;80.66
61086;BME280;46967;48.876;2.136;2023-01-29T04:28:05;102878.03;;;-1.18;81.54
61086;BME280;46967;48.876;2.136;2023-01-29T04:30:52;102877.97;;;-1.19;81.93
61086;BME280;46967;48.876;2.136;2023-01-29T04:33:28;102882.97;;;-1.21;81.85
61086;BME280;46967;48.876;2.136;2023-01-29T04:41:56;102885.78;;;-1.33;81.72
61086;BME280;46967;48.876;2.136;2023-01-29T04:47:34;102891.97;;;-1.28;81.69
61086;BME280;46967;48.876;2.136;2023-01-29T04:50:46;102895.22;;;-1.30;81.40
61086;BME280;46967;48.876;2.136;2023-01-29T04:53:15;102893.41;;;-1.33;81.50
61086;BME280;46967;48.876;2.136;2023-01-29T04:58:32;102896.66;;;-1.35;81.33
61086;BME280;46967;48.876;2.136;2023-01-29T05:01:04;102897.16;;;-1.42;81.47
61086;BME280;46967;48.876;2.136;2023-01-29T05:03:31;102896.81;;;-1.49;81.57
61086;BME280;46967;48.876;2.136;2023-01-29T05:05:59;102898.56;;;-1.48;81.03
61086;BME280;46967;48.876;2.136;2023-01-29T05:08:28;102892.59;;;-1.48;81.54
61086;BME280;46967;48.876;2.136;2023-01-29T05:10:56;102903.81;;;-1.44;81.54
61086;BME280;46967;48.876;2.136;2023-01-29T05:13:24;102900.56;;;-1.42;81.27
61086;BME280;46967;48.876;2.136;2023-01-29T05:15:59;102893.53;;;-1.46;81.69
61086;BME280;46967;48.876;2.136;2023-01-29T05:18:27;102895.78;;;-1.52;81.99
61086;BME280;46967;48.876;2.136;2023-01-29T05:20:55;102890.69;;;-1.52;81.66
61086;BME280;46967;48.876;2.136;2023-01-29T05:23:22;102883.69;;;-1.56;81.80
61086;BME280;46967;48.876;2.136;2023-01-29T05:25:49;102890.38;;;-1.58;82.58
61086;BME280;46967;48.876;2.136;2023-01-29T05:28:14;102882.81;;;-1.57;82.61
61086;BME280;46967;48.876;2.136;2023-01-29T05:30:48;102878.75;;;-1.53;82.15
61086;BME280;46967;48.876;2.136;2023-01-29T05:33:20;102880.66;;;-1.49;81.84
61086;BME280;46967;48.876;2.136;2023-01-29T05:35:46;102884.94;;;-1.48;81.71
61086;BME280;46967;48.876;2.136;2023-01-29T05:38:13;102882.56;;;-1.45;81.80
61086;BME280;46967;48.876;2.136;2023-01-29T05:40:39;102886.72;;;-1.47;81.60
61086;BME280;46967;48.876;2.136;2023-01-29T05:43:06;102891.81;;;-1.47;81.55
61086;BME280;46967;48.876;2.136;2023-01-29T05:45:38;102896.81;;;-1.49;81.81
61086;BME280;46967;48.876;2.136;2023-01-29T05:48:03;102890.78;;;-1.51;82.07
61086;BME280;46967;48.876;2.136;2023-01-29T05:50:28;102892.19;;;-1.56;82.46
61086;BME280;46967;48.876;2.136;2023-01-29T05:52:58;102888.34;;;-1.64;82.52
61086;BME280;46967;48.876;2.136;2023-01-29T05:55:24;102893.13;;;-1.70;83.29
61086;BME280;46967;48.876;2.136;2023-01-29T05:57:49;102894.88;;;-1.69;83.24
61086;BME280;46967;48.876;2.136;2023-01-29T06:00:15;102899.88;;;-1.71;83.12
61086;BME280;46967;48.876;2.136;2023-01-29T06:02:40;102891.53;;;-1.68;82.97
61086;BME280;46967;48.876;2.136;2023-01-29T06:05:06;102890.19;;;-1.61;82.36
61086;BME280;46967;48.876;2.136;2023-01-29T06:07:31;102891.84;;;-1.62;82.16
61086;BME280;46967;48.876;2.136;2023-01-29T06:09:56;102890.03;;;-1.65;82.21
61086;BME280;46967;48.876;2.136;2023-01-29T06:12:22;102900.13;;;-1.66;82.75
61086;BME280;46967;48.876;2.136;2023-01-29T06:14:47;102901.78;;;-1.67;82.58
61086;BME280;46967;48.876;2.136;2023-01-29T06:17:12;102898.38;;;-1.67;82.48
61086;BME280;46967;48.876;2.136;2023-01-29T06:19:38;102908.31;;;-1.72;82.54
61086;BME280;46967;48.876;2.136;2023-01-29T06:22:03;102897.50;;;-1.68;82.50
61086;BME280;46967;48.876;2.136;2023-01-29T06:24:28;102893.28;;;-1.67;81.97
61086;BME280;46967;48.876;2.136;2023-01-29T06:26:54;102889.13;;;-1.65;81.64
61086;BME280;46967;48.876;2.136;2023-01-29T06:29:19;102893.38;;;-1.66;81.65
61086;BME280;46967;48.876;2.136;2023-01-29T06:31:44;102899.09;;;-1.70;81.65
61086;BME280;46967;48.876;2.136;2023-01-29T06:34:10;102895.41;;;-1.75;82.08
61086;BME280;46967;48.876;2.136;2023-01-29T06:36:35;102905.34;;;-1.79;82.00
61086;BME280;46967;48.876;2.136;2023-01-29T06:39:01;102908.78;;;-1.79;82.11
61086;BME280;46967;48.876;2.136;2023-01-29T06:41:26;102910.53;;;-1.78;81.87
61086;BME280;46967;48.876;2.136;2023-01-29T06:43:52;102910.53;;;-1.78;81.82
61086;BME280;46967;48.876;2.136;2023-01-29T06:46:18;102913.72;;;-1.82;82.14
61086;BME280;46967;48.876;2.136;2023-01-29T06:48:43;102906.00;;;-1.84;82.15
61086;BME280;46967;48.876;2.136;2023-01-29T06:51:09;102913.63;;;-1.84;82.44
61086;BME280;46967;48.876;2.136;2023-01-29T06:53:36;102914.50;;;-1.83;82.28
61086;BME280;46967;48.876;2.136;2023-01-29T06:56:03;102908.63;;;-1.82;82.25
61086;BME280;46967;48.876;2.136;2023-01-29T06:58:28;102908.53;;;-1.84;82.15
61086;BME280;46967;48.876;2.136;2023-01-29T07:01:01;102905.16;;;-1.83;82.03
61086;BME280;46967;48.876;2.136;2023-01-29T07:03:27;102903.44;;;-1.84;81.97
61086;BME280;46967;48.876;2.136;2023-01-29T07:05:52;102908.28;;;-1.88;82.50
61086;BME280;46967;48.876;2.136;2023-01-29T07:08:18;102900.63;;;-1.88;81.94
61086;BME280;46967;48.876;2.136;2023-01-29T07:10:46;102912.56;;;-1.87;81.82
61086;BME280;46967;48.876;2.136;2023-01-29T07:13:12;102919.41;;;-1.86;81.91
61086;BME280;46967;48.876;2.136;2023-01-29T07:15:37;102913.47;;;-1.87;81.68
61086;BME280;46967;48.876;2.136;2023-01-29T07:18:03;102910.09;;;-1.86;81.62
61086;BME280;46967;48.876;2.136;2023-01-29T07:20:30;102903.28;;;-1.87;81.35
61086;BME280;46967;48.876;2.136;2023-01-29T07:22:56;102911.84;;;-1.85;81.40
61086;BME280;46967;48.876;2.136;2023-01-29T07:25:23;102917.59;;;-1.89;81.74
61086;BME280;46967;48.876;2.136;2023-01-29T07:27:48;102912.16;;;-1.95;82.20
61086;BME280;46967;48.876;2.136;2023-01-29T07:30:14;102900.13;;;-1.97;82.36
61086;BME280;46967;48.876;2.136;2023-01-29T07:32:40;102907.84;;;-1.96;82.18
61086;BME280;46967;48.876;2.136;2023-01-29T07:35:05;102911.25;;;-1.95;82.45
61086;BME280;46967;48.876;2.136;2023-01-29T07:37:31;102914.63;;;-1.96;82.14
61086;BME280;46967;48.876;2.136;2023-01-29T07:39:56;102920.50;;;-1.97;81.99
61086;BME280;46967;48.876;2.136;2023-01-29T07:42:22;102919.53;;;-1.99;82.40
61086;BME280;46967;48.876;2.136;2023-01-29T07:44:48;102924.72;;;-1.98;82.51
61086;BME280;46967;48.876;2.136;2023-01-29T07:47:13;102921.19;;;-2.00;82.82
61086;BME280;46967;48.876;2.136;2023-01-29T07:49:38;102916.75;;;-2.04;83.24
61086;BME280;46967;48.876;2.136;2023-01-29T07:52:04;102909.28;;;-2.01;83.37
61086;BME280;46967;48.876;2.136;2023-01-29T07:54:30;102910.31;;;-1.97;83.01
61086;BME280;46967;48.876;2.136;2023-01-29T07:56:55;102911.53;;;-1.91;82.60
61086;BME280;46967;48.876;2.136;2023-01-29T07:59:20;102907.47;;;-1.87;82.43
61086;BME280;46967;48.876;2.136;2023-01-29T08:01:46;102906.00;;;-1.84;82.29
61086;BME280;46967;48.876;2.136;2023-01-29T08:04:11;102907.03;;;-1.80;82.59
61086;BME280;46967;48.876;2.136;2023-01-29T08:06:37;102905.59;;;-1.75;82.58
61086;BME280;46967;48.876;2.136;2023-01-29T08:09:02;102899.16;;;-1.68;82.30
61086;BME280;46967;48.876;2.136;2023-01-29T08:11:27;102907.13;;;-1.62;82.35
61086;BME280;46967;48.876;2.136;2023-01-29T08:13:53;102909.84;;;-1.59;82.42
61086;BME280;46967;48.876;2.136;2023-01-29T08:16:19;102913.63;;;-1.52;82.54
61086;BME280;46967;48.876;2.136;2023-01-29T08:18:44;102919.84;;;-1.47;82.97
61086;BME280;46967;48.876;2.136;2023-01-29T08:21:11;102930.34;;;-1.41;83.24
61086;BME280;46967;48.876;2.136;2023-01-29T08:23:37;102922.06;;;-1.37;83.62
61086;BME280;46967;48.876;2.136;2023-01-29T08:26:03;102912.44;;;-1.26;83.69
61086;BME280;46967;48.876;2.136;2023-01-29T08:28:29;102903.44;;;-1.19;83.88
61086;BME280;46967;48.876;2.136;2023-01-29T08:30:54;102900.25;;;-1.15;84.13
61086;BME280;46967;48.876;2.136;2023-01-29T08:33:20;102907.56;;;-1.05;83.96
61086;BME280;46967;48.876;2.136;2023-01-29T08:35:49;102905.50;;;-0.96;84.07
61086;BME280;46967;48.876;2.136;2023-01-29T08:38:16;102903.19;;;-0.91;84.10
61086;BME280;46967;48.876;2.136;2023-01-29T08:40:42;102906.13;;;-0.83;83.84
61086;BME280;46967;48.876;2.136;2023-01-29T08:43:09;102910.75;;;-0.76;84.15
61086;BME280;46967;48.876;2.136;2023-01-29T08:45:40;102915.44;;;-0.67;84.03
61086;BME280;46967;48.876;2.136;2023-01-29T08:48:06;102906.56;;;-0.58;83.63
61086;BME280;46967;48.876;2.136;2023-01-29T08:50:32;102919.78;;;-0.48;83.56
61086;BME280;46967;48.876;2.136;2023-01-29T08:53:00;102921.84;;;-0.41;83.96
61086;BME280;46967;48.876;2.136;2023-01-29T08:55:26;102925.78;;;-0.30;83.77
61086;BME280;46967;48.876;2.136;2023-01-29T08:57:52;102937.41;;;-0.19;83.88
61086;BME280;46967;48.876;2.136;2023-01-29T09:00:17;102941.34;;;-0.07;83.75
61086;BME280;46967;48.876;2.136;2023-01-29T09:02:43;102947.34;;;0.11;83.56
61086;BME280;46967;48.876;2.136;2023-01-29T09:05:08;102951.28;;;0.23;83.46
61086;BME280;46967;48.876;2.136;2023-01-29T09:07:34;102954.13;;;0.29;83.41
61086;BME280;46967;48.876;2.136;2023-01-29T09:10:00;102950.22;;;0.37;83.33
61086;BME280;46967;48.876;2.136;2023-01-29T09:12:25;102945.63;;;0.48;83.38
61086;BME280;46967;48.876;2.136;2023-01-29T09:14:50;102945.28;;;0.60;82.75
61086;BME280;46967;48.876;2.136;2023-01-29T09:17:16;102944.94;;;0.70;82.51
61086;BME280;46967;48.876;2.136;2023-01-29T09:19:41;102941.16;;;0.81;82.78
61086;BME280;46967;48.876;2.136;2023-01-29T09:22:06;102955.09;;;0.88;82.37
61086;BME280;46967;48.876;2.136;2023-01-29T09:24:32;102945.19;;;0.96;82.16
61086;BME280;46967;48.876;2.136;2023-01-29T09:26:59;102935.97;;;0.99;82.29
61086;BME280;46967;48.876;2.136;2023-01-29T09:29:24;102937.19;;;1.07;82.38
61086;BME280;46967;48.876;2.136;2023-01-29T09:31:50;102933.16;;;1.13;82.76
61086;BME280;46967;48.876;2.136;2023-01-29T09:34:15;102943.38;;;1.13;82.68
61086;BME280;46967;48.876;2.136;2023-01-29T09:36:40;102941.19;;;1.22;82.73
61086;BME280;46967;48.876;2.136;2023-01-29T09:39:06;102943.44;;;1.34;81.78
61086;BME280;46967;48.876;2.136;2023-01-29T09:46:47;102951.31;;;1.59;81.18
61086;BME280;46967;48.876;2.136;2023-01-29T09:49:31;102951.50;;;1.64;80.79
61086;BME280;46967;48.876;2.136;2023-01-29T09:52:05;102940.63;;;1.70;80.51
61086;BME280;46967;48.876;2.136;2023-01-29T09:57:19;102938.75;;;1.87;80.01
61086;BME280;46967;48.876;2.136;2023-01-29T09:59:47;102934.75;;;1.93;79.54
61086;BME280;46967;48.876;2.136;2023-01-29T10:02:35;102935.00;;;1.99;79.03
61086;BME280;46967;48.876;2.136;2023-01-29T10:10:21;102941.41;;;2.11;78.97
61086;BME280;46967;48.876;2.136;2023-01-29T10:15:59;102938.28;;;2.18;78.31
61086;BME280;46967;48.876;2.136;2023-01-29T10:23:49;102923.31;;;2.51;76.91
61086;BME280;46967;48.876;2.136;2023-01-29T10:26:20;102916.91;;;2.63;77.41
61086;BME280;46967;48.876;2.136;2023-01-29T10:28:49;102918.88;;;2.70;77.11
61086;BME280;46967;48.876;2.136;2023-01-29T10:31:19;102916.66;;;2.79;76.83
61086;BME280;46967;48.876;2.136;2023-01-29T10:33:51;102914.50;;;2.92;75.83
61086;BME280;46967;48.876;2.136;2023-01-29T10:36:34;102908.84;;;3.00;75.30
61086;BME280;46967;48.876;2.136;2023-01-29T10:39:00;102904.91;;;3.10;74.45
61086;BME280;46967;48.876;2.136;2023-01-29T10:44:36;102893.25;;;3.20;74.47
61086;BME280;46967;48.876;2.136;2023-01-29T10:53:05;102891.44;;;3.41;75.30
61086;BME280;46967;48.876;2.136;2023-01-29T10:58:18;102882.44;;;3.54;72.57
61086;BME280;46967;48.876;2.136;2023-01-29T11:00:50;102882.09;;;3.71;72.54
61086;BME280;46967;48.876;2.136;2023-01-29T11:08:19;102872.47;;;3.63;70.91
61086;BME280;46967;48.876;2.136;2023-01-29T11:11:04;102870.81;;;3.66;70.84
61086;BME280;46967;48.876;2.136;2023-01-29T11:13:37;102869.88;;;3.63;70.92
61086;BME280;46967;48.876;2.136;2023-01-29T11:16:05;102872.06;;;3.78;70.76
61086;BME280;46967;48.876;2.136;2023-01-29T11:19:10;102876.63;;;3.87;69.61
61086;BME280;46967;48.876;2.136;2023-01-29T11:21:56;102870.53;;;3.85;69.83
61086;BME280;46967;48.876;2.136;2023-01-29T11:24:21;102864.13;;;3.99;70.15
61086;BME280;46967;48.876;2.136;2023-01-29T11:26:48;102857.84;;;3.90;nan
61086;BME280;46967;48.876;2.136;2023-01-29T11:29:39;102855.09;;;3.84;70.57
61086;BME280;46967;48.876;2.136;2023-01-29T11:32:13;102849.22;;;3.88;69.44
61086;BME280;46967;48.876;2.136;2023-01-29T11:35:04;102857.88;;;3.91;69.44
61086;BME280;46967;48.876;2.136;2023-01-29T11:37:44;102845.09;;;3.93;69.70
61086;BME280;46967;48.876;2.136;2023-01-29T11:42:48;102840.91;;;3.95;69.83
61086;BME280;46967;48.876;2.136;2023-01-29T11:45:28;102845.56;;;4.08;68.95
61086;BME280;46967;48.876;2.136;2023-01-29T11:47:57;102836.91;;;4.05;69.59
61086;BME280;46967;48.876;2.136;2023-01-29T11:50:26;102836.25;;;3.83;68.40
61086;BME280;46967;48.876;2.136;2023-01-29T11:52:52;102832.06;;;3.87;68.54
61086;BME280;46967;48.876;2.136;2023-01-29T11:55:23;102834.63;;;3.87;68.21
61086;BME280;46967;48.876;2.136;2023-01-29T11:57:55;102836.38;;;3.88;68.76
61086;BME280;46967;48.876;2.136;2023-01-29T12:00:26;102831.44;;;3.94;68.09
61086;BME280;46967;48.876;2.136;2023-01-29T12:02:55;102824.69;;;3.97;67.18
61086;BME280;46967;48.876;2.136;2023-01-29T12:05:24;102825.28;;;3.89;66.66
61086;BME280;46967;48.876;2.136;2023-01-29T12:07:52;102822.91;;;3.95;66.75
61086;BME280;46967;48.876;2.136;2023-01-29T12:10:38;102816.75;;;4.20;65.15
61086;BME280;46967;48.876;2.136;2023-01-29T12:15:41;102821.72;;;4.14;64.21
61086;BME280;46967;48.876;2.136;2023-01-29T12:20:57;102809.13;;;3.93;64.44
61086;BME280;46967;48.876;2.136;2023-01-29T12:26:37;102816.44;;;3.80;64.94
61086;BME280;46967;48.876;2.136;2023-01-29T12:34:23;102791.72;;;4.13;63.76
61086;BME280;46967;48.876;2.136;2023-01-29T12:37:21;102788.66;;;4.26;62.93
61086;BME280;46967;48.876;2.136;2023-01-29T12:39:48;102777.06;;;4.41;62.73
61086;BME280;46967;48.876;2.136;2023-01-29T12:42:22;102777.19;;;4.45;62.66
61086;BME280;46967;48.876;2.136;2023-01-29T12:44:52;102767.03;;;4.50;62.65
61086;BME280;46967;48.876;2.136;2023-01-29T12:47:23;102759.91;;;4.73;61.81
61086;BME280;46967;48.876;2.136;2023-01-29T12:49:56;102755.91;;;4.84;60.96
61086;BME280;46967;48.876;2.136;2023-01-29T12:55:43;102744.06;;;4.91;61.77
61086;BME280;46967;48.876;2.136;2023-01-29T12:58:13;102745.03;;;4.96;62.44
61086;BME280;46967;48.876;2.136;2023-01-29T13:00:43;102732.47;;;5.08;62.09
61086;BME280;46967;48.876;2.136;2023-01-29T13:05:49;102719.75;;;5.15;61.27
61086;BME280;46967;48.876;2.136;2023-01-29T13:08:22;102718.84;;;5.13;62.01
61086;BME280;46967;48.876;2.136;2023-01-29T13:10:52;102719.78;;;5.16;61.46
61086;BME280;46967;48.876;2.136;2023-01-29T13:13:31;102716.38;;;5.17;61.23
61086;BME280;46967;48.876;2.136;2023-01-29T13:15:58;102716.53;;;5.23;60.23
61086;BME280;46967;48.876;2.136;2023-01-29T13:18:49;102708.78;;;5.22;60.87
61086;BME280;46967;48.876;2.136;2023-01-29T13:21:21;102708.75;;;5.20;60.86
61086;BME280;46967;48.876;2.136;2023-01-29T13:23:49;102708.81;;;5.23;60.84
61086;BME280;46967;48.876;2.136;2023-01-29T13:26:17;102699.53;;;5.32;60.58
61086;BME280;46967;48.876;2.136;2023-01-29T13:28:44;102696.13;;;5.33;59.83
61086;BME280;46967;48.876;2.136;2023-01-29T13:31:21;102688.31;;;5.30;60.13
61086;BME280;46967;48.876;2.136;2023-01-29T13:33:52;102688.31;;;5.30;61.21
61086;BME280;46967;48.876;2.136;2023-01-29T13:36:25;102689.28;;;5.33;61.14
61086;BME280;46967;48.876;2.136;2023-01-29T13:39:18;102690.94;;;5.31;61.55
61086;BME280;46967;48.876;2.136;2023-01-29T13:41:45;102681.72;;;5.41;60.68
61086;BME280;46967;48.876;2.136;2023-01-29T13:46:58;102678.97;;;5.33;60.94
61086;BME280;46967;48.876;2.136;2023-01-29T13:52:13;102662.72;;;5.36;60.45
61086;BME280;46967;48.876;2.136;2023-01-29T13:54:40;102664.34;;;5.32;61.09
61086;BME280;46967;48.876;2.136;2023-01-29T14:00:00;102652.56;;;5.43;60.12
61086;BME280;46967;48.876;2.136;2023-01-29T14:02:27;102643.16;;;5.44;60.38
61086;BME280;46967;48.876;2.136;2023-01-29T14:07:57;102638.84;;;5.43;60.56
61086;BME280;46967;48.876;2.136;2023-01-29T14:10:30;102635.34;;;5.39;61.54
61086;BME280;46967;48.876;2.136;2023-01-29T14:18:29;102620.31;;;5.61;59.90
61086;BME280;46967;48.876;2.136;2023-01-29T14:21:01;102621.06;;;5.55;60.09
61086;BME280;46967;48.876;2.136;2023-01-29T14:23:44;102611.63;;;5.56;60.55
61086;BME280;46967;48.876;2.136;2023-01-29T14:26:25;102612.31;;;5.49;60.11
61086;BME280;46967;48.876;2.136;2023-01-29T14:28:54;102607.28;;;5.53;60.08
61086;BME280;46967;48.876;2.136;2023-01-29T14:31:28;102606.47;;;5.56;59.89
61086;BME280;46967;48.876;2.136;2023-01-29T14:33:59;102597.78;;;5.51;59.80
61086;BME280;46967;48.876;2.136;2023-01-29T14:36:25;102586.53;;;5.47;60.46
61086;BME280;46967;48.876;2.136;2023-01-29T14:38:52;102583.19;;;5.51;60.71
61086;BME280;46967;48.876;2.136;2023-01-29T14:41:31;102587.66;;;5.58;60.94
61086;BME280;46967;48.876;2.136;2023-01-29T14:47:20;102582.50;;;5.58;60.80
61086;BME280;46967;48.876;2.136;2023-01-29T14:49:56;102592.81;;;5.60;60.97
61086;BME280;46967;48.876;2.136;2023-01-29T14:52:57;102593.50;;;5.51;61.05
61086;BME280;46967;48.876;2.136;2023-01-29T14:55:42;102591.59;;;5.41;60.59
61086;BME280;46967;48.876;2.136;2023-01-29T14:58:13;102587.22;;;5.37;61.68
61086;BME280;46967;48.876;2.136;2023-01-29T15:00:43;102590.59;;;5.34;61.16
61086;BME280;46967;48.876;2.136;2023-01-29T15:03:18;102584.31;;;5.21;61.37
61086;BME280;46967;48.876;2.136;2023-01-29T15:05:45;102586.03;;;5.21;61.89
61086;BME280;46967;48.876;2.136;2023-01-29T15:08:20;102589.47;;;5.21;62.37
61086;BME280;46967;48.876;2.136;2023-01-29T15:10:51;102594.53;;;5.18;61.80
61086;BME280;46967;48.876;2.136;2023-01-29T15:13:56;102596.19;;;5.15;61.62
61086;BME280;46967;48.876;2.136;2023-01-29T15:16:41;102596.91;;;5.09;62.30
61086;BME280;46967;48.876;2.136;2023-01-29T15:22:03;102605.31;;;5.00;62.30
61086;BME280;46967;48.876;2.136;2023-01-29T15:24:29;102611.22;;;4.96;62.91
61086;BME280;46967;48.876;2.136;2023-01-29T15:26:54;102613.00;;;4.99;62.56